sensor_id;sensor_type;location;lat;lon;timestamp;pressure;altitude;pressure_sealevel;temperature;humidity
11345;BME280;5727;42.600;23.028;2023-04-15T00:01:05;92947.34;;;7.35;100.00
11345;BME280;5727;42.600;23.028;2023-04-15T00:03:33;92934.09;;;7.40;100.00
11345;BME280;5727;42.600;23.028;2023-04-15T00:06:01;92924.97;;;7.47;100.00
11345;BME280;5727;42.600;23.028;2023-04-15T00:08:28;92922.16;;;7.52;100.00
11345;BME280;5727;42.600;23.028;2023-04-15T00:10:55;92927.28;;;7.60;100.00
11345;BME280;5727;42.600;23.028;2023-04-15T00:13:23;92921.06;;;7.65;100.00
11345;BME280;5727;42.600;23.028;2023-04-15T00:15:50;92926.63;;;7.75;100.00
11345;BME280;5727;42.600;23.028;2023-04-15T00:18:17;92921.50;;;7.79;100.00
11345;BME280;5727;42.600;23.028;2023-04-15T00:20:45;92917.59;;;7.85;100.00
11345;BME280;5727;42.600;23.028;2023-04-15T00:23:12;92923.78;;;7.92;100.00
11345;BME280;5727;42.600;23.028;2023-04-15T00:25:39;92915.88;;;7.89;100.00
11345;BME280;5727;42.600;23.028;2023-04-15T00:28:06;92920.41;;;7.92;100.00
11345;BME280;5727;42.600;23.028;2023-04-15T00:30:32;92921.28;;;7.96;100.00
11345;BME280;5727;42.600;23.028;2023-04-15T00:32:59;92918.91;;;8.03;100.00
11345;BME280;5727;42.600;23.028;2023-04-15T00:35:28;92913.47;;;8.08;100.00
11345;BME280;5727;42.600;23.028;2023-04-15T00:37:58;92915.19;;;8.16;100.00
11345;BME280;5727;42.600;23.028;2023-04-15T00:40:25;92922.78;;;8.21;100.00
11345;BME280;5727;42.600;23.028;2023-04-15T00:42:52;92922.13;;;8.24;100.00
11345;BME280;5727;42.600;23.028;2023-04-15T00:45:19;92919.97;;;8.26;100.00
11345;BME280;5727;42.600;23.028;2023-04-15T00:47:46;92921.50;;;8.27;100.00
11345;BME280;5727;42.600;23.028;2023-04-15T00:50:13;92917.78;;;8.28;100.00
11345;BME280;5727;42.600;23.028;2023-04-15T00:52:39;92921.69;;;8.34;100.00
11345;BME280;5727;42.600;23.028;2023-04-15T00:55:08;92917.34;;;8.38;100.00
11345;BME280;5727;42.600;23.028;2023-04-15T00:57:35;92913.31;;;8.41;100.00
11345;BME280;5727;42.600;23.028;2023-04-15T01:00:03;92918.88;;;8.39;100.00
11345;BME280;5727;42.600;23.028;2023-04-15T01:02:34;92917.75;;;8.40;100.00
11345;BME280;5727;42.600;23.028;2023-04-15T01:05:01;92918.97;;;8.43;100.00
11345;BME280;5727;42.600;23.028;2023-04-15T01:07:28;92924.81;;;8.40;100.00
11345;BME280;5727;42.600;23.028;2023-04-15T01:09:55;92920.38;;;8.40;100.00
11345;BME280;5727;42.600;23.028;2023-04-15T01:12:25;92924.19;;;8.43;100.00
11345;BME280;5727;42.600;23.028;2023-04-15T01:14:52;92915.91;;;8.41;100.00
11345;BME280;5727;42.600;23.028;2023-04-15T01:17:19;92917.75;;;8.40;100.00
11345;BME280;5727;42.600;23.028;2023-04-15T01:19:46;92923.00;;;8.40;100.00
11345;BME280;5727;42.600;23.028;2023-04-15T01:22:13;92929.63;;;8.38;100.00
11345;BME280;5727;42.600;23.028;2023-04-15T01:24:40;92927.69;;;8.35;100.00
11345;BME280;5727;42.600;23.028;2023-04-15T01:27:11;92930.28;;;8.35;100.00
11345;BME280;5727;42.600;23.028;2023-04-15T01:29:37;92923.44;;;8.30;100.00
11345;BME280;5727;42.600;23.028;2023-04-15T01:32:04;92929.75;;;8.17;100.00
11345;BME280;5727;42.600;23.028;2023-04-15T01:34:32;92932.25;;;8.13;100.00
11345;BME280;5727;42.600;23.028;2023-04-15T01:36:58;92925.19;;;8.02;100.00
11345;BME280;5727;42.600;23.028;2023-04-15T01:39:25;92931.72;;;7.96;100.00
11345;BME280;5727;42.600;23.028;2023-04-15T01:41:52;92929.00;;;7.92;100.00
11345;BME280;5727;42.600;23.028;2023-04-15T01:44:20;92930.66;;;7.85;100.00
11345;BME280;5727;42.600;23.028;2023-04-15T01:46:47;92923.16;;;7.83;100.00
11345;BME280;5727;42.600;23.028;2023-04-15T01:49:13;92921.94;;;7.81;100.00
11345;BME280;5727;42.600;23.028;2023-04-15T01:51:40;92922.28;;;7.79;100.00
11345;BME280;5727;42.600;23.028;2023-04-15T01:54:07;92930.44;;;7.78;100.00
11345;BME280;5727;42.600;23.028;2023-04-15T01:56:33;92927.59;;;7.71;100.00
11345;BME280;5727;42.600;23.028;2023-04-15T01:59:00;92927.94;;;7.69;100.00
11345;BME280;5727;42.600;23.028;2023-04-15T02:01:29;92938.69;;;7.68;100.00
11345;BME280;5727;42.600;23.028;2023-04-15T02:03:56;92940.63;;;7.59;100.00
11345;BME280;5727;42.600;23.028;2023-04-15T02:06:22;92948.97;;;7.28;100.00
11345;BME280;5727;42.600;23.028;2023-04-15T02:08:49;92954.69;;;7.21;100.00
11345;BME280;5727;42.600;23.028;2023-04-15T02:11:16;92950.84;;;7.07;100.00
11345;BME280;5727;42.600;23.028;2023-04-15T02:13:44;92945.63;;;6.74;100.00
11345;BME280;5727;42.600;23.028;2023-04-15T02:16:17;92945.09;;;6.81;100.00
11345;BME280;5727;42.600;23.028;2023-04-15T02:18:45;92944.31;;;6.68;100.00
11345;BME280;5727;42.600;23.028;2023-04-15T02:21:12;92945.63;;;6.74;100.00
11345;BME280;5727;42.600;23.028;2023-04-15T02:23:39;92943.78;;;6.75;100.00
11345;BME280;5727;42.600;23.028;2023-04-15T02:26:06;92950.84;;;6.74;100.00
11345;BME280;5727;42.600;23.028;2023-04-15T02:28:33;92949.19;;;6.70;100.00
11345;BME280;5727;42.600;23.028;2023-04-15T02:31:00;92936.72;;;6.75;100.00
11345;BME280;5727;42.600;23.028;2023-04-15T02:33:26;92940.22;;;6.79;100.00
11345;BME280;5727;42.600;23.028;2023-04-15T02:35:54;92948.91;;;6.83;100.00
11345;BME280;5727;42.600;23.028;2023-04-15T02:38:21;92940.66;;;6.81;100.00
11345;BME280;5727;42.600;23.028;2023-04-15T02:40:48;92939.13;;;6.80;100.00
11345;BME280;5727;42.600;23.028;2023-04-15T02:43:15;92941.44;;;6.82;100.00
11345;BME280;5727;42.600;23.028;2023-04-15T02:45:42;92942.19;;;6.82;100.00
11345;BME280;5727;42.600;23.028;2023-04-15T02:48:09;92945.22;;;6.84;100.00
11345;BME280;5727;42.600;23.028;2023-04-15T02:50:38;92941.88;;;6.84;100.00
11345;BME280;5727;42.600;23.028;2023-04-15T02:53:08;92939.56;;;6.82;100.00
11345;BME280;5727;42.600;23.028;2023-04-15T02:55:35;92929.81;;;6.79;100.00
11345;BME280;5727;42.600;23.028;2023-04-15T02:58:02;92940.44;;;6.74;100.00
11345;BME280;5727;42.600;23.028;2023-04-15T03:00:28;92935.84;;;6.71;100.00
11345;BME280;5727;42.600;23.028;2023-04-15T03:02:57;92939.09;;;6.68;100.00
11345;BME280;5727;42.600;23.028;2023-04-15T03:05:24;92957.06;;;6.61;100.00
11345;BME280;5727;42.600;23.028;2023-04-15T03:07:51;92958.47;;;6.59;100.00
11345;BME280;5727;42.600;23.028;2023-04-15T03:10:19;92962.84;;;6.46;100.00
11345;BME280;5727;42.600;23.028;2023-04-15T03:12:46;92968.59;;;6.31;100.00
11345;BME280;5727;42.600;23.028;2023-04-15T03:15:13;92981.91;;;6.09;100.00
11345;BME280;5727;42.600;23.028;2023-04-15T03:17:41;92982.66;;;5.72;100.00
11345;BME280;5727;42.600;23.028;2023-04-15T03:20:07;92977.53;;;5.54;100.00
11345;BME280;5727;42.600;23.028;2023-04-15T03:22:34;92989.03;;;5.45;100.00
11345;BME280;5727;42.600;23.028;2023-04-15T03:25:01;92985.69;;;5.36;100.00
11345;BME280;5727;42.600;23.028;2023-04-15T03:27:29;92985.25;;;5.34;100.00
11345;BME280;5727;42.600;23.028;2023-04-15T03:29:56;92989.06;;;5.28;100.00
11345;BME280;5727;42.600;23.028;2023-04-15T03:32:23;92993.22;;;5.12;100.00
11345;BME280;5727;42.600;23.028;2023-04-15T03:34:49;92998.59;;;4.98;100.00
11345;BME280;5727;42.600;23.028;2023-04-15T03:37:16;92997.22;;;4.75;100.00
11345;BME280;5727;42.600;23.028;2023-04-15T03:39:43;93002.88;;;4.60;100.00
11345;BME280;5727;42.600;23.028;2023-04-15T03:42:10;93004.25;;;4.57;100.00
11345;BME280;5727;42.600;23.028;2023-04-15T03:44:38;93002.13;;;4.51;100.00
11345;BME280;5727;42.600;23.028;2023-04-15T03:47:04;93004.09;;;4.54;100.00
11345;BME280;5727;42.600;23.028;2023-04-15T03:49:31;93007.31;;;4.51;100.00
11345;BME280;5727;42.600;23.028;2023-04-15T03:51:58;93005.47;;;4.51;100.00
11345;BME280;5727;42.600;23.028;2023-04-15T03:54:25;93002.41;;;4.58;100.00
11345;BME280;5727;42.600;23.028;2023-04-15T03:56:52;93000.59;;;4.67;100.00
11345;BME280;5727;42.600;23.028;2023-04-15T03:59:19;93006.56;;;4.76;100.00
11345;BME280;5727;42.600;23.028;2023-04-15T04:01:47;93006.84;;;4.92;100.00
11345;BME280;5727;42.600;23.028;2023-04-15T04:04:13;93017.03;;;5.05;100.00
11345;BME280;5727;42.600;23.028;2023-04-15T04:06:40;93014.59;;;5.17;100.00
11345;BME280;5727;42.600;23.028;2023-04-15T04:09:07;93014.28;;;5.27;100.00
11345;BME280;5727;42.600;23.028;2023-04-15T04:11:34;93015.47;;;5.38;100.00
11345;BME280;5727;42.600;23.028;2023-04-15T04:14:01;93019.56;;;5.48;100.00
11345;BME280;5727;42.600;23.028;2023-04-15T04:16:28;93016.97;;;5.56;100.00
11345;BME280;5727;42.600;23.028;2023-04-15T04:18:56;93024.56;;;5.62;100.00
11345;BME280;5727;42.600;23.028;2023-04-15T04:21:23;93018.44;;;5.66;100.00
11345;BME280;5727;42.600;23.028;2023-04-15T04:23:51;93020.56;;;5.73;100.00
11345;BME280;5727;42.600;23.028;2023-04-15T04:26:17;93023.00;;;5.78;100.00
11345;BME280;5727;42.600;23.028;2023-04-15T04:28:44;93021.91;;;5.79;100.00
11345;BME280;5727;42.600;23.028;2023-04-15T04:31:11;93031.09;;;5.85;100.00
11345;BME280;5727;42.600;23.028;2023-04-15T04:33:38;93018.56;;;5.78;100.00
11345;BME280;5727;42.600;23.028;2023-04-15T04:36:06;93019.63;;;5.86;100.00
11345;BME280;5727;42.600;23.028;2023-04-15T04:38:33;93024.91;;;5.98;100.00
11345;BME280;5727;42.600;23.028;2023-04-15T04:41:00;93026.13;;;6.09;100.00
11345;BME280;5727;42.600;23.028;2023-04-15T04:43:26;93027.44;;;6.15;100.00
11345;BME280;5727;42.600;23.028;2023-04-15T04:45:53;93027.09;;;6.25;100.00
11345;BME280;5727;42.600;23.028;2023-04-15T04:48:20;93030.47;;;6.25;100.00
11345;BME280;5727;42.600;23.028;2023-04-15T04:50:47;93028.09;;;6.32;100.00
11345;BME280;5727;42.600;23.028;2023-04-15T04:53:15;93036.94;;;6.40;100.00
11345;BME280;5727;42.600;23.028;2023-04-15T04:55:42;93038.16;;;6.42;100.00
11345;BME280;5727;42.600;23.028;2023-04-15T04:58:09;93050.09;;;6.43;100.00
11345;BME280;5727;42.600;23.028;2023-04-15T05:00:36;93058.03;;;6.47;100.00
11345;BME280;5727;42.600;23.028;2023-04-15T05:03:03;93059.38;;;6.53;100.00
11345;BME280;5727;42.600;23.028;2023-04-15T05:05:30;93061.03;;;6.58;100.00
11345;BME280;5727;42.600;23.028;2023-04-15T05:07:56;93063.91;;;6.65;100.00
11345;BME280;5727;42.600;23.028;2023-04-15T05:10:24;93055.59;;;6.71;100.00
11345;BME280;5727;42.600;23.028;2023-04-15T05:12:51;93050.91;;;6.65;100.00
11345;BME280;5727;42.600;23.028;2023-04-15T05:15:18;93058.41;;;6.58;100.00
11345;BME280;5727;42.600;23.028;2023-04-15T05:17:45;93058.75;;;6.27;100.00
11345;BME280;5727;42.600;23.028;2023-04-15T05:20:12;93063.63;;;6.28;100.00
11345;BME280;5727;42.600;23.028;2023-04-15T05:22:39;93057.03;;;6.31;100.00
11345;BME280;5727;42.600;23.028;2023-04-15T05:25:06;93053.41;;;6.23;100.00
11345;BME280;5727;42.600;23.028;2023-04-15T05:27:35;93050.81;;;6.23;100.00
11345;BME280;5727;42.600;23.028;2023-04-15T05:30:02;93055.53;;;6.30;100.00
11345;BME280;5727;42.600;23.028;2023-04-15T05:32:29;93059.84;;;6.26;100.00
11345;BME280;5727;42.600;23.028;2023-04-15T05:34:55;93067.72;;;6.38;100.00
11345;BME280;5727;42.600;23.028;2023-04-15T05:37:22;93065.53;;;6.48;100.00
11345;BME280;5727;42.600;23.028;2023-04-15T05:39:49;93059.88;;;6.46;100.00
11345;BME280;5727;42.600;23.028;2023-04-15T05:42:16;93061.69;;;6.46;100.00
11345;BME280;5727;42.600;23.028;2023-04-15T05:44:44;93067.31;;;6.57;100.00
11345;BME280;5727;42.600;23.028;2023-04-15T05:47:11;93071.75;;;6.56;100.00
11345;BME280;5727;42.600;23.028;2023-04-15T05:49:37;93071.84;;;6.68;100.00
11345;BME280;5727;42.600;23.028;2023-04-15T05:52:04;93079.19;;;6.66;100.00
11345;BME280;5727;42.600;23.028;2023-04-15T05:54:31;93079.25;;;6.78;100.00
11345;BME280;5727;42.600;23.028;2023-04-15T05:56:58;93075.16;;;6.98;100.00
11345;BME280;5727;42.600;23.028;2023-04-15T05:59:25;93079.09;;;7.04;100.00
11345;BME280;5727;42.600;23.028;2023-04-15T06:01:54;93075.41;;;7.25;100.00
11345;BME280;5727;42.600;23.028;2023-04-15T06:04:20;93078.25;;;7.32;100.00
11345;BME280;5727;42.600;23.028;2023-04-15T06:06:47;93071.47;;;7.52;100.00
11345;BME280;5727;42.600;23.028;2023-04-15T06:09:14;93077.47;;;7.65;100.00
11345;BME280;5727;42.600;23.028;2023-04-15T06:11:41;93086.88;;;7.78;100.00
11345;BME280;5727;42.600;23.028;2023-04-15T06:14:07;93090.66;;;7.80;100.00
11345;BME280;5727;42.600;23.028;2023-04-15T06:16:34;93091.91;;;7.95;100.00
11345;BME280;5727;42.600;23.028;2023-04-15T06:19:03;93101.91;;;8.05;100.00
11345;BME280;5727;42.600;23.028;2023-04-15T06:21:30;93104.53;;;8.05;100.00
11345;BME280;5727;42.600;23.028;2023-04-15T06:23:57;93103.78;;;8.16;100.00
11345;BME280;5727;42.600;23.028;2023-04-15T06:26:24;93120.69;;;8.31;100.00
11345;BME280;5727;42.600;23.028;2023-04-15T06:28:51;93122.22;;;8.44;100.00
11345;BME280;5727;42.600;23.028;2023-04-15T06:31:18;93119.72;;;8.48;100.00
11345;BME280;5727;42.600;23.028;2023-04-15T06:33:45;93116.59;;;8.66;100.00
11345;BME280;5727;42.600;23.028;2023-04-15T06:36:13;93119.84;;;8.75;100.00
11345;BME280;5727;42.600;23.028;2023-04-15T06:38:39;93121.44;;;8.92;100.00
11345;BME280;5727;42.600;23.028;2023-04-15T06:41:06;93124.69;;;9.13;100.00
11345;BME280;5727;42.600;23.028;2023-04-15T06:43:33;93112.88;;;9.31;100.00
11345;BME280;5727;42.600;23.028;2023-04-15T06:46:00;93126.47;;;9.49;100.00
11345;BME280;5727;42.600;23.028;2023-04-15T06:48:27;93121.38;;;9.68;100.00
11345;BME280;5727;42.600;23.028;2023-04-15T06:50:54;93123.91;;;9.80;100.00
11345;BME280;5727;42.600;23.028;2023-04-15T06:53:23;93118.72;;;9.95;100.00
11345;BME280;5727;42.600;23.028;2023-04-15T06:55:50;93117.78;;;10.16;100.00
11345;BME280;5727;42.600;23.028;2023-04-15T06:58:17;93111.28;;;10.25;100.00
11345;BME280;5727;42.600;23.028;2023-04-15T07:00:44;93122.78;;;10.36;100.00
11345;BME280;5727;42.600;23.028;2023-04-15T07:03:11;93116.34;;;10.49;100.00
11345;BME280;5727;42.600;23.028;2023-04-15T07:05:38;93112.22;;;10.64;100.00
11345;BME280;5727;42.600;23.028;2023-04-15T07:08:05;93119.16;;;10.72;100.00
11345;BME280;5727;42.600;23.028;2023-04-15T07:10:34;93119.53;;;10.89;100.00
11345;BME280;5727;42.600;23.028;2023-04-15T07:13:00;93112.34;;;11.02;100.00
11345;BME280;5727;42.600;23.028;2023-04-15T07:15:27;93117.13;;;11.16;100.00
11345;BME280;5727;42.600;23.028;2023-04-15T07:17:54;93126.03;;;11.30;100.00
11345;BME280;5727;42.600;23.028;2023-04-15T07:20:20;93122.03;;;11.36;100.00
11345;BME280;5727;42.600;23.028;2023-04-15T07:22:47;93126.34;;;11.44;94.77
11345;BME280;5727;42.600;23.028;2023-04-15T07:25:14;93139.94;;;11.50;84.67
11345;BME280;5727;42.600;23.028;2023-04-15T07:27:43;93130.69;;;11.56;83.81
11345;BME280;5727;42.600;23.028;2023-04-15T07:30:10;93132.19;;;11.57;83.07
11345;BME280;5727;42.600;23.028;2023-04-15T07:32:38;93124.00;;;11.58;84.82
11345;BME280;5727;42.600;23.028;2023-04-15T07:35:05;93135.44;;;11.66;78.69
11345;BME280;5727;42.600;23.028;2023-04-15T07:37:32;93135.28;;;11.78;79.28
11345;BME280;5727;42.600;23.028;2023-04-15T07:39:59;93144.44;;;11.87;77.62
11345;BME280;5727;42.600;23.028;2023-04-15T07:42:25;93151.38;;;11.95;77.20
11345;BME280;5727;42.600;23.028;2023-04-15T07:44:57;93152.53;;;11.98;75.67
11345;BME280;5727;42.600;23.028;2023-04-15T07:47:23;93154.88;;;12.03;74.42
11345;BME280;5727;42.600;23.028;2023-04-15T07:49:51;93151.16;;;12.04;74.58
11345;BME280;5727;42.600;23.028;2023-04-15T07:52:18;93162.25;;;12.17;76.16
11345;BME280;5727;42.600;23.028;2023-04-15T07:54:44;93159.00;;;12.23;74.41
11345;BME280;5727;42.600;23.028;2023-04-15T07:57:11;93166.66;;;12.32;74.38
11345;BME280;5727;42.600;23.028;2023-04-15T07:59:38;93177.38;;;12.42;73.39
11345;BME280;5727;42.600;23.028;2023-04-15T08:02:06;93175.84;;;12.41;68.85
11345;BME280;5727;42.600;23.028;2023-04-15T08:04:32;93171.28;;;12.38;67.58
11345;BME280;5727;42.600;23.028;2023-04-15T08:06:59;93167.84;;;12.34;68.26
11345;BME280;5727;42.600;23.028;2023-04-15T08:09:26;93173.56;;;12.40;68.18
11345;BME280;5727;42.600;23.028;2023-04-15T08:11:53;93174.97;;;12.56;68.59
11345;BME280;5727;42.600;23.028;2023-04-15T08:14:20;93166.56;;;12.70;69.54
11345;BME280;5727;42.600;23.028;2023-04-15T08:16:47;93166.84;;;12.87;69.22
11345;BME280;5727;42.600;23.028;2023-04-15T08:19:15;93166.78;;;13.07;69.72
11345;BME280;5727;42.600;23.028;2023-04-15T08:21:42;93174.53;;;13.22;69.63
11345;BME280;5727;42.600;23.028;2023-04-15T08:24:09;93159.34;;;13.35;67.89
11345;BME280;5727;42.600;23.028;2023-04-15T08:26:36;93153.16;;;13.50;67.02
11345;BME280;5727;42.600;23.028;2023-04-15T08:29:02;93164.16;;;13.59;63.01
11345;BME280;5727;42.600;23.028;2023-04-15T08:31:29;93154.44;;;13.63;62.66
11345;BME280;5727;42.600;23.028;2023-04-15T08:33:56;93136.44;;;13.68;63.34
11345;BME280;5727;42.600;23.028;2023-04-15T08:36:25;93135.88;;;13.82;62.61
11345;BME280;5727;42.600;23.028;2023-04-15T08:38:52;93126.41;;;13.77;61.02
11345;BME280;5727;42.600;23.028;2023-04-15T08:41:21;93125.72;;;13.84;62.02
11345;BME280;5727;42.600;23.028;2023-04-15T08:43:52;93122.78;;;13.89;62.76
11345;BME280;5727;42.600;23.028;2023-04-15T08:46:20;93123.69;;;14.04;64.69
11345;BME280;5727;42.600;23.028;2023-04-15T08:48:48;93122.22;;;14.06;60.39
11345;BME280;5727;42.600;23.028;2023-04-15T08:51:15;93119.13;;;14.01;61.72
11345;BME280;5727;42.600;23.028;2023-04-15T08:53:44;93114.88;;;13.89;63.00
11345;BME280;5727;42.600;23.028;2023-04-15T08:56:13;93113.59;;;14.09;62.66
11345;BME280;5727;42.600;23.028;2023-04-15T08:58:41;93119.66;;;14.13;57.66
11345;BME280;5727;42.600;23.028;2023-04-15T09:01:09;93114.50;;;14.24;53.64
11345;BME280;5727;42.600;23.028;2023-04-15T09:03:37;93103.13;;;14.16;53.79
11345;BME280;5727;42.600;23.028;2023-04-15T09:06:04;93103.31;;;14.34;54.19
11345;BME280;5727;42.600;23.028;2023-04-15T09:08:31;93097.44;;;14.47;54.26
11345;BME280;5727;42.600;23.028;2023-04-15T09:11:01;93089.31;;;14.66;54.43
11345;BME280;5727;42.600;23.028;2023-04-15T09:13:28;93087.88;;;14.76;53.48
11345;BME280;5727;42.600;23.028;2023-04-15T09:15:55;93099.88;;;14.70;50.55
11345;BME280;5727;42.600;23.028;2023-04-15T09:18:29;93096.50;;;14.29;50.29
11345;BME280;5727;42.600;23.028;2023-04-15T09:21:03;93102.72;;;14.51;50.87
11345;BME280;5727;42.600;23.028;2023-04-15T09:23:31;93103.72;;;14.80;48.96
11345;BME280;5727;42.600;23.028;2023-04-15T09:25:58;93110.72;;;15.09;47.89
11345;BME280;5727;42.600;23.028;2023-04-15T09:28:27;93092.38;;;15.37;47.82
11345;BME280;5727;42.600;23.028;2023-04-15T09:30:56;93091.41;;;15.55;45.42
11345;BME280;5727;42.600;23.028;2023-04-15T09:33:24;93094.06;;;15.59;45.50
11345;BME280;5727;42.600;23.028;2023-04-15T09:35:59;93097.94;;;15.83;45.83
11345;BME280;5727;42.600;23.028;2023-04-15T09:38:26;93102.88;;;15.98;45.31
11345;BME280;5727;42.600;23.028;2023-04-15T09:40:54;93109.34;;;16.15;44.01
11345;BME280;5727;42.600;23.028;2023-04-15T09:43:21;93110.50;;;16.17;44.86
11345;BME280;5727;42.600;23.028;2023-04-15T09:45:51;93099.94;;;16.31;43.21
11345;BME280;5727;42.600;23.028;2023-04-15T09:48:19;93107.75;;;15.86;42.77
11345;BME280;5727;42.600;23.028;2023-04-15T09:50:47;93111.06;;;15.69;43.83
11345;BME280;5727;42.600;23.028;2023-04-15T09:53:18;93106.97;;;15.78;42.12
11345;BME280;5727;42.600;23.028;2023-04-15T09:55:48;93105.38;;;15.63;43.41
11345;BME280;5727;42.600;23.028;2023-04-15T09:58:19;93115.97;;;15.70;43.85
11345;BME280;5727;42.600;23.028;2023-04-15T10:00:50;93105.00;;;15.57;45.17
11345;BME280;5727;42.600;23.028;2023-04-15T10:03:19;93096.78;;;15.80;42.79
11345;BME280;5727;42.600;23.028;2023-04-15T10:05:48;93092.28;;;15.88;42.56
11345;BME280;5727;42.600;23.028;2023-04-15T10:08:17;93093.81;;;15.96;42.77
11345;BME280;5727;42.600;23.028;2023-04-15T10:10:44;93093.50;;;16.15;43.26
11345;BME280;5727;42.600;23.028;2023-04-15T10:13:12;93097.66;;;16.23;41.92
11345;BME280;5727;42.600;23.028;2023-04-15T10:15:43;93092.38;;;16.23;40.62
11345;BME280;5727;42.600;23.028;2023-04-15T10:18:12;93088.97;;;16.33;41.21
11345;BME280;5727;42.600;23.028;2023-04-15T10:20:41;93087.16;;;16.55;40.43
11345;BME280;5727;42.600;23.028;2023-04-15T10:23:08;93083.41;;;16.77;41.49
11345;BME280;5727;42.600;23.028;2023-04-15T10:25:35;93078.47;;;16.93;39.73
11345;BME280;5727;42.600;23.028;2023-04-15T10:28:03;93086.03;;;16.94;39.90
11345;BME280;5727;42.600;23.028;2023-04-15T10:30:32;93092.41;;;17.32;39.88
11345;BME280;5727;42.600;23.028;2023-04-15T10:32:59;93084.44;;;17.53;39.08
11345;BME280;5727;42.600;23.028;2023-04-15T10:35:29;93079.88;;;17.47;36.76
11345;BME280;5727;42.600;23.028;2023-04-15T10:37:56;93071.59;;;17.34;39.15
11345;BME280;5727;42.600;23.028;2023-04-15T10:40:25;93076.56;;;17.11;37.26
11345;BME280;5727;42.600;23.028;2023-04-15T10:42:53;93078.09;;;16.66;37.28
11345;BME280;5727;42.600;23.028;2023-04-15T10:45:20;93084.50;;;16.76;38.36
11345;BME280;5727;42.600;23.028;2023-04-15T10:47:51;93081.47;;;16.98;38.59
11345;BME280;5727;42.600;23.028;2023-04-15T10:50:18;93077.66;;;17.24;37.30
11345;BME280;5727;42.600;23.028;2023-04-15T10:52:49;93073.81;;;17.42;37.06
11345;BME280;5727;42.600;23.028;2023-04-15T10:55:20;93066.63;;;17.57;36.64
11345;BME280;5727;42.600;23.028;2023-04-15T10:57:51;93077.16;;;17.71;36.23
11345;BME280;5727;42.600;23.028;2023-04-15T11:00:24;93075.34;;;17.61;36.91
11345;BME280;5727;42.600;23.028;2023-04-15T11:02:53;93075.75;;;17.42;35.76
11345;BME280;5727;42.600;23.028;2023-04-15T11:05:22;93079.50;;;17.41;36.71
11345;BME280;5727;42.600;23.028;2023-04-15T11:07:54;93077.66;;;17.24;37.36
11345;BME280;5727;42.600;23.028;2023-04-15T11:10:51;93068.16;;;17.51;35.87
11345;BME280;5727;42.600;23.028;2023-04-15T11:13:25;93072.81;;;16.80;36.46
11345;BME280;5727;42.600;23.028;2023-04-15T11:15:58;93069.78;;;16.54;37.19
11345;BME280;5727;42.600;23.028;2023-04-15T11:18:29;93071.28;;;16.90;37.93
11345;BME280;5727;42.600;23.028;2023-04-15T11:20:59;93065.56;;;17.23;38.12
11345;BME280;5727;42.600;23.028;2023-04-15T11:23:30;93070.00;;;17.65;37.37
11345;BME280;5727;42.600;23.028;2023-04-15T11:25:58;93068.34;;;17.99;35.64
11345;BME280;5727;42.600;23.028;2023-04-15T11:28:26;93072.59;;;17.75;34.57
11345;BME280;5727;42.600;23.028;2023-04-15T11:30:55;93065.53;;;17.51;34.03
11345;BME280;5727;42.600;23.028;2023-04-15T11:33:23;93063.63;;;17.52;35.48
11345;BME280;5727;42.600;23.028;2023-04-15T11:35:51;93058.91;;;17.94;34.52
11345;BME280;5727;42.600;23.028;2023-04-15T11:38:19;93053.34;;;18.37;33.91
11345;BME280;5727;42.600;23.028;2023-04-15T11:40:49;93047.53;;;18.63;33.10
11345;BME280;5727;42.600;23.028;2023-04-15T11:43:18;93058.69;;;18.33;31.30
11345;BME280;5727;42.600;23.028;2023-04-15T11:45:50;93060.22;;;18.27;32.01
11345;BME280;5727;42.600;23.028;2023-04-15T11:48:18;93059.34;;;17.82;32.86
11345;BME280;5727;42.600;23.028;2023-04-15T11:50:45;93059.66;;;17.95;32.20
11345;BME280;5727;42.600;23.028;2023-04-15T11:53:12;93050.81;;;18.15;31.81
11345;BME280;5727;42.600;23.028;2023-04-15T11:55:43;93052.16;;;18.48;30.94
11345;BME280;5727;42.600;23.028;2023-04-15T11:58:13;93052.63;;;19.28;30.65
11345;BME280;5727;42.600;23.028;2023-04-15T12:00:46;93054.06;;;19.40;29.81
11345;BME280;5727;42.600;23.028;2023-04-15T12:03:21;93050.19;;;19.07;29.60
11345;BME280;5727;42.600;23.028;2023-04-15T12:06:11;93049.16;;;19.31;29.22
11345;BME280;5727;42.600;23.028;2023-04-15T12:09:08;93043.28;;;20.14;27.06
11345;BME280;5727;42.600;23.028;2023-04-15T12:11:43;93051.03;;;20.81;27.71
11345;BME280;5727;42.600;23.028;2023-04-15T12:14:23;93053.03;;;21.24;27.07
11345;BME280;5727;42.600;23.028;2023-04-15T12:16:52;93056.19;;;20.92;26.52
11345;BME280;5727;42.600;23.028;2023-04-15T12:19:24;93045.56;;;20.42;25.87
11345;BME280;5727;42.600;23.028;2023-04-15T12:21:54;93039.28;;;19.35;26.84
11345;BME280;5727;42.600;23.028;2023-04-15T12:24:23;93052.53;;;19.72;27.83
11345;BME280;5727;42.600;23.028;2023-04-15T12:26:51;93053.19;;;20.90;26.82
11345;BME280;5727;42.600;23.028;2023-04-15T12:29:19;93052.72;;;22.20;25.39
11345;BME280;5727;42.600;23.028;2023-04-15T12:31:49;93059.31;;;22.83;24.51
11345;BME280;5727;42.600;23.028;2023-04-15T12:34:17;93055.56;;;23.57;22.62
11345;BME280;5727;42.600;23.028;2023-04-15T12:36:45;93059.44;;;23.98;21.42
11345;BME280;5727;42.600;23.028;2023-04-15T12:39:12;93066.97;;;22.65;21.62
11345;BME280;5727;42.600;23.028;2023-04-15T12:41:38;93054.00;;;24.01;21.80
11345;BME280;5727;42.600;23.028;2023-04-15T12:44:06;93055.03;;;25.55;21.13
11345;BME280;5727;42.600;23.028;2023-04-15T12:46:33;93049.53;;;25.58;21.95
11345;BME280;5727;42.600;23.028;2023-04-15T12:49:01;93051.09;;;25.68;21.09
11345;BME280;5727;42.600;23.028;2023-04-15T12:51:28;93051.72;;;24.91;21.08
11345;BME280;5727;42.600;23.028;2023-04-15T12:53:56;93055.94;;;23.72;22.38
11345;BME280;5727;42.600;23.028;2023-04-15T12:56:23;93045.34;;;23.69;22.81
11345;BME280;5727;42.600;23.028;2023-04-15T12:58:49;93045.66;;;23.71;21.18
11345;BME280;5727;42.600;23.028;2023-04-15T13:01:16;93051.31;;;24.01;22.06
11345;BME280;5727;42.600;23.028;2023-04-15T13:03:43;93061.00;;;23.83;21.48